Time;durP1;ratioP1;P1;durP2;ratioP2;P2;SDS_P1;SDS_P2;PMS_P1;PMS_P2;Temp;Humidity;BMP_temperature;BMP_pressure;BME280_temperature;BME280_humidity;BME280_pressure;Samples;Min_cycle;Max_cycle;Signal;HPM_P1;HPM_P2
2022/02/12 00:00:46;;;;;;;;;;;24.70;42.00;;;;;;1565575;76;812;-69
2022/02/12 00:02:53;;;;;;;;;;;24.60;41.80;;;;;;1568549;76;1938;-69
2022/02/12 00:04:52;;;;;;;;;;;24.70;42.00;;;;;;1566804;76;1600;-73
2022/02/12 00:06:54;;;;;;;;;;;24.60;41.90;;;;;;1568470;74;1137;-70
2022/02/12 00:08:56;;;;;;;;;;;24.60;41.90;;;;;;1546031;76;785;-72
2022/02/12 00:10:57;;;;;;;;;;;24.60;41.90;;;;;;1543304;77;636;-69
2022/02/12 00:12:59;;;;;;;;;;;24.70;42.10;;;;;;1543548;77;775;-69
2022/02/12 00:15:01;;;;;;;;;;;24.60;42.00;;;;;;1543211;76;738;-72
2022/02/12 00:17:03;;;;;;;;;;;24.60;42.00;;;;;;1543636;76;1163;-69
2022/02/12 00:19:05;;;;;;;;;;;24.60;41.90;;;;;;1545407;76;713;-69
2022/02/12 00:21:07;;;;;;;;;;;24.60;42.00;;;;;;1569718;75;790;-70
2022/02/12 00:23:09;;;;;;;;;;;24.70;42.20;;;;;;1569836;76;1936;-70
2022/02/12 00:25:11;;;;;;;;;;;24.60;42.10;;;;;;1569798;76;682;-71
2022/02/12 00:27:13;;;;;;;;;;;24.60;42.10;;;;;;1569704;74;1139;-72
2022/02/12 00:29:15;;;;;;;;;;;24.50;42.10;;;;;;1555307;76;702;-69
2022/02/12 00:31:16;;;;;;;;;;;24.60;42.10;;;;;;1543318;76;723;-69
2022/02/12 00:33:18;;;;;;;;;;;24.60;42.10;;;;;;1580678;75;779;-69
2022/02/12 00:35:20;;;;;;;;;;;24.60;42.20;;;;;;1581931;75;722;-70
2022/02/12 00:37:24;;;;;;;;;;;24.60;42.10;;;;;;1580284;74;1103;-70
2022/02/12 00:39:26;;;;;;;;;;;24.60;42.20;;;;;;1543421;77;730;-70
2022/02/12 00:41:28;;;;;;;;;;;24.70;42.30;;;;;;1543507;77;791;-72
2022/02/12 00:43:30;;;;;;;;;;;24.70;42.30;;;;;;1543251;77;1939;-68
2022/02/12 00:45:32;;;;;;;;;;;24.60;42.20;;;;;;1543854;76;804;-69
2022/02/12 00:47:34;;;;;;;;;;;24.70;42.30;;;;;;1543520;76;1149;-68
2022/02/12 00:49:36;;;;;;;;;;;24.60;42.30;;;;;;1551234;76;744;-69
2022/02/12 00:51:38;;;;;;;;;;;24.60;42.30;;;;;;1569782;75;705;-72
2022/02/12 00:53:41;;;;;;;;;;;24.60;42.30;;;;;;1569527;76;730;-69
2022/02/12 00:55:42;;;;;;;;;;;24.60;42.30;;;;;;1569696;74;1146;-69
2022/02/12 00:57:44;;;;;;;;;;;24.60;42.40;;;;;;1560394;75;779;-70
2022/02/12 00:59:46;;;;;;;;;;;24.60;42.40;;;;;;1552907;76;733;-69
2022/02/12 01:01:48;;;;;;;;;;;24.70;42.50;;;;;;1568436;76;1900;-69
2022/02/12 01:03:50;;;;;;;;;;;24.60;42.40;;;;;;1568504;76;722;-69
2022/02/12 01:05:52;;;;;;;;;;;24.60;42.40;;;;;;1551333;76;1167;-69
2022/02/12 01:07:54;;;;;;;;;;;24.70;42.50;;;;;;1543528;77;707;-69
2022/02/12 01:09:56;;;;;;;;;;;24.70;42.50;;;;;;1543440;77;648;-70
2022/02/12 01:11:58;;;;;;;;;;;24.60;42.40;;;;;;1543368;77;770;-73
2022/02/12 01:14:00;;;;;;;;;;;24.60;42.40;;;;;;1543708;76;735;-70
2022/02/12 01:16:01;;;;;;;;;;;24.60;42.50;;;;;;1543245;76;1130;-70
2022/02/12 01:18:03;;;;;;;;;;;24.60;42.50;;;;;;1543499;77;726;-70
2022/02/12 01:20:06;;;;;;;;;;;24.60;42.50;;;;;;1557751;75;723;-70
2022/02/12 01:22:08;;;;;;;;;;;24.70;42.60;;;;;;1569566;76;1942;-71
2022/02/12 01:24:09;;;;;;;;;;;24.60;42.50;;;;;;1569877;76;776;-70
2022/02/12 01:26:11;;;;;;;;;;;24.60;42.50;;;;;;1569704;74;1133;-73
2022/02/12 01:28:13;;;;;;;;;;;24.60;42.60;;;;;;1546196;76;660;-72
2022/02/12 01:30:15;;;;;;;;;;;24.60;42.60;;;;;;1543530;77;762;-74
2022/02/12 01:32:17;;;;;;;;;;;24.60;42.60;;;;;;1565441;75;730;-70
2022/02/12 01:34:19;;;;;;;;;;;24.60;42.60;;;;;;1592388;75;724;-73
2022/02/12 01:36:21;;;;;;;;;;;24.60;42.60;;;;;;1563770;75;1157;-71
2022/02/12 01:38:23;;;;;;;;;;;24.60;42.60;;;;;;1543374;77;679;-71
2022/02/12 01:40:26;;;;;;;;;;;24.70;42.70;;;;;;1543426;77;756;-70
2022/02/12 01:42:28;;;;;;;;;;;24.60;42.60;;;;;;1543364;76;1910;-72
2022/02/12 01:44:33;;;;;;;;;;;24.60;42.60;;;;;;1550775;76;789;-73
2022/02/12 01:46:35;;;;;;;;;;;24.60;42.60;;;;;;1569639;74;1133;-70
2022/02/12 01:48:41;;;;;;;;;;;24.60;42.60;;;;;;1569688;76;712;-71
2022/02/12 01:50:41;;;;;;;;;;;24.60;42.70;;;;;;1546285;75;1447;-73
2022/02/12 01:52:43;;;;;;;;;;;24.60;42.60;;;;;;1543435;77;784;-72
2022/02/12 01:54:45;;;;;;;;;;;24.60;42.70;;;;;;1543540;76;684;-71
2022/02/12 01:56:47;;;;;;;;;;;24.60;42.60;;;;;;1568089;74;1158;-72
2022/02/12 01:58:49;;;;;;;;;;;24.60;42.70;;;;;;1545755;77;738;-71
2022/02/12 02:00:51;;;;;;;;;;;24.60;42.70;;;;;;1566424;76;805;-70
2022/02/12 02:02:53;;;;;;;;;;;24.60;42.70;;;;;;1568460;76;1914;-71
2022/02/12 02:04:55;;;;;;;;;;;24.60;42.80;;;;;;1559217;76;739;-70
2022/02/12 02:06:57;;;;;;;;;;;24.60;42.80;;;;;;1543489;76;1162;-69
2022/02/12 02:09:03;;;;;;;;;;;24.50;42.80;;;;;;1543581;77;706;-69
2022/02/12 02:11:04;;;;;;;;;;;24.50;42.80;;;;;;1542644;77;1576;-73
2022/02/12 02:13:06;;;;;;;;;;;24.50;42.90;;;;;;1544076;76;734;-70
2022/02/12 02:15:08;;;;;;;;;;;24.50;42.80;;;;;;1543443;77;729;-71
2022/02/12 02:17:10;;;;;;;;;;;24.50;42.80;;;;;;1543238;76;1071;-71
2022/02/12 02:19:13;;;;;;;;;;;24.50;42.90;;;;;;1544000;76;764;-70
2022/02/12 02:21:15;;;;;;;;;;;24.50;42.90;;;;;;1540352;73;2094;-72
2022/02/12 02:23:18;;;;;;;;;;;24.50;42.80;;;;;;1525464;77;1931;-72
2022/02/12 02:25:20;;;;;;;;;;;24.50;42.90;;;;;;1516629;78;691;-72
2022/02/12 02:27:22;;;;;;;;;;;24.50;42.90;;;;;;1516802;78;750;-72
2022/02/12 02:29:24;;;;;;;;;;;24.50;42.90;;;;;;1516783;78;656;-74
2022/02/12 02:31:27;;;;;;;;;;;24.50;43.00;;;;;;1547990;75;1225;-72
2022/02/12 02:33:29;;;;;;;;;;;24.50;42.90;;;;;;1574750;75;721;-72
2022/02/12 02:35:31;;;;;;;;;;;24.50;43.00;;;;;;1565561;75;771;-72
2022/02/12 02:37:33;;;;;;;;;;;24.50;43.00;;;;;;1535583;75;735;-72
2022/02/12 02:39:35;;;;;;;;;;;24.50;43.00;;;;;;1550011;75;791;-70
2022/02/12 02:41:36;;;;;;;;;;;24.50;43.00;;;;;;1522930;75;1136;-71
2022/02/12 02:43:40;;;;;;;;;;;24.50;43.00;;;;;;1519167;77;1941;-71
2022/02/12 02:45:41;;;;;;;;;;;24.50;43.10;;;;;;1542077;75;674;-70
2022/02/12 02:47:43;;;;;;;;;;;24.50;43.00;;;;;;1560539;76;741;-71
2022/02/12 02:49:45;;;;;;;;;;;24.50;43.10;;;;;;1555701;75;703;-71
2022/02/12 02:56:26;;;;;;;;;;;24.40;43.00;;;;;;1518940;77;1639;-72
2022/02/12 02:58:29;;;;;;;;;;;24.50;43.10;;;;;;1520948;75;724;-73
2022/02/12 03:00:30;;;;;;;;;;;24.40;43.00;;;;;;1550975;76;1137;-73
2022/02/12 03:02:32;;;;;;;;;;;24.40;43.00;;;;;;1548071;77;1933;-73
2022/02/12 03:04:34;;;;;;;;;;;24.40;43.00;;;;;;1548077;77;751;-73
2022/02/12 03:06:36;;;;;;;;;;;24.50;43.10;;;;;;1547850;75;716;-73
2022/02/12 03:08:38;;;;;;;;;;;24.40;43.00;;;;;;1549852;75;671;-73
2022/02/12 03:10:40;;;;;;;;;;;24.50;43.10;;;;;;1541309;76;1174;-73
2022/02/12 03:12:42;;;;;;;;;;;24.40;43.10;;;;;;1519149;78;785;-74
2022/02/12 03:14:43;;;;;;;;;;;24.40;43.10;;;;;;1519146;78;747;-74
2022/02/12 03:16:45;;;;;;;;;;;24.50;43.20;;;;;;1519121;78;726;-73
2022/02/12 03:18:48;;;;;;;;;;;24.40;43.10;;;;;;1532168;75;713;-73
2022/02/12 03:20:50;;;;;;;;;;;24.30;43.10;;;;;;1559365;75;1142;-72
2022/02/12 03:22:52;;;;;;;;;;;24.40;43.10;;;;;;1560299;76;1926;-73
2022/02/12 03:24:54;;;;;;;;;;;24.40;43.20;;;;;;1560461;76;732;-74
2022/02/12 03:26:56;;;;;;;;;;;24.50;43.30;;;;;;1560445;76;691;-73
2022/02/12 03:28:57;;;;;;;;;;;24.50;43.20;;;;;;1561375;75;686;-73
2022/02/12 03:30:59;;;;;;;;;;;24.50;43.30;;;;;;1574798;75;1189;-74
2022/02/12 03:33:01;;;;;;;;;;;24.50;43.30;;;;;;1574827;75;796;-74
2022/02/12 03:35:03;;;;;;;;;;;24.50;43.20;;;;;;1574656;75;741;-73
2022/02/12 03:37:05;;;;;;;;;;;24.50;43.20;;;;;;1562935;75;772;-74
2022/02/12 03:39:07;;;;;;;;;;;24.50;43.20;;;;;;1560389;76;729;-74
2022/02/12 03:41:09;;;;;;;;;;;24.60;43.20;;;;;;1560389;76;1131;-74
2022/02/12 03:43:11;;;;;;;;;;;24.60;43.10;;;;;;1560449;76;1919;-74
2022/02/12 03:45:14;;;;;;;;;;;24.60;43.00;;;;;;1543342;75;711;-72
2022/02/12 03:47:16;;;;;;;;;;;24.70;43.20;;;;;;1560410;76;711;-72
2022/02/12 03:49:18;;;;;;;;;;;24.70;43.20;;;;;;1559367;75;762;-72
2022/02/12 03:51:21;;;;;;;;;;;24.70;43.10;;;;;;1560244;75;1169;-72
2022/02/12 03:53:23;;;;;;;;;;;24.80;42.90;;;;;;1560328;76;713;-72
2022/02/12 03:55:25;;;;;;;;;;;24.80;43.00;;;;;;1551281;76;727;-72
2022/02/12 03:57:27;;;;;;;;;;;24.80;42.90;;;;;;1548013;76;724;-72
2022/02/12 03:59:29;;;;;;;;;;;24.80;42.90;;;;;;1553300;75;693;-73
2022/02/12 04:01:31;;;;;;;;;;;24.80;42.80;;;;;;1560342;76;1129;-72
2022/02/12 04:03:32;;;;;;;;;;;24.90;43.00;;;;;;1560347;76;1935;-72
2022/02/12 04:05:35;;;;;;;;;;;24.90;42.90;;;;;;1560336;75;782;-73
2022/02/12 04:07:38;;;;;;;;;;;24.90;42.80;;;;;;1560225;76;774;-72
2022/02/12 04:09:40;;;;;;;;;;;24.90;42.80;;;;;;1559406;75;634;-72
2022/02/12 04:11:41;;;;;;;;;;;25.00;42.70;;;;;;1560459;76;1099;-72
2022/02/12 04:13:46;;;;;;;;;;;25.00;42.70;;;;;;1560155;76;796;-71
2022/02/12 04:15:47;;;;;;;;;;;25.00;42.70;;;;;;1560031;76;1136;-73
2022/02/12 04:17:49;;;;;;;;;;;24.90;42.60;;;;;;1559275;75;771;-73
2022/02/12 04:19:51;;;;;;;;;;;25.00;42.60;;;;;;1559341;75;780;-72
2022/02/12 04:21:53;;;;;;;;;;;25.10;42.60;;;;;;1560317;76;1149;-72
2022/02/12 04:23:55;;;;;;;;;;;25.10;42.60;;;;;;1560209;76;1942;-72
2022/02/12 04:25:57;;;;;;;;;;;25.10;42.60;;;;;;1560228;76;779;-73
2022/02/12 04:28:01;;;;;;;;;;;25.10;42.50;;;;;;1559433;75;701;-72
2022/02/12 04:30:03;;;;;;;;;;;25.00;42.60;;;;;;1558820;75;1100;-72
2022/02/12 04:32:05;;;;;;;;;;;25.00;42.50;;;;;;1560356;76;1102;-72
2022/02/12 04:34:07;;;;;;;;;;;25.00;42.50;;;;;;1560245;75;649;-72
2022/02/12 04:36:09;;;;;;;;;;;25.00;42.50;;;;;;1560319;76;756;-72
2022/02/12 04:38:11;;;;;;;;;;;25.10;42.50;;;;;;1559378;75;716;-72
2022/02/12 04:40:13;;;;;;;;;;;25.00;42.40;;;;;;1560290;76;735;-72
2022/02/12 04:42:17;;;;;;;;;;;25.10;42.50;;;;;;1560281;76;1119;-72
2022/02/12 04:44:18;;;;;;;;;;;25.00;42.40;;;;;;1551412;76;1900;-72
2022/02/12 04:46:20;;;;;;;;;;;25.10;42.40;;;;;;1524204;75;702;-71
2022/02/12 04:48:22;;;;;;;;;;;25.20;42.40;;;;;;1560512;76;693;-73
2022/02/12 04:50:24;;;;;;;;;;;25.20;42.30;;;;;;1558015;75;1138;-72
2022/02/12 04:52:26;;;;;;;;;;;25.10;42.30;;;;;;1540909;77;702;-74
2022/02/12 04:54:28;;;;;;;;;;;25.20;42.30;;;;;;1548076;77;651;-72
2022/02/12 04:56:30;;;;;;;;;;;25.10;42.30;;;;;;1547825;75;777;-72
2022/02/12 04:58:32;;;;;;;;;;;25.20;42.30;;;;;;1554372;75;728;-71
2022/02/12 05:00:34;;;;;;;;;;;25.20;42.30;;;;;;1560423;76;1086;-71
2022/02/12 05:02:36;;;;;;;;;;;25.10;42.20;;;;;;1560265;76;738;-72
2022/02/12 05:04:37;;;;;;;;;;;25.10;42.30;;;;;;1560380;76;1935;-72
2022/02/12 05:06:39;;;;;;;;;;;25.10;42.20;;;;;;1559371;75;703;-71
2022/02/12 05:08:41;;;;;;;;;;;25.20;42.20;;;;;;1560272;76;739;-72
2022/02/12 05:10:43;;;;;;;;;;;25.10;42.10;;;;;;1560422;76;1119;-72
2022/02/12 05:12:45;;;;;;;;;;;25.20;42.10;;;;;;1560117;76;730;-72
2022/02/12 05:14:47;;;;;;;;;;;25.20;42.10;;;;;;1560380;76;766;-73
2022/02/12 05:16:49;;;;;;;;;;;25.20;42.00;;;;;;1559566;75;779;-72
2022/02/12 05:18:50;;;;;;;;;;;25.20;42.00;;;;;;1560268;76;704;-74
2022/02/12 05:20:52;;;;;;;;;;;25.20;42.00;;;;;;1559484;75;1160;-72
2022/02/12 05:22:54;;;;;;;;;;;25.20;42.00;;;;;;1560453;76;675;-72
2022/02/12 05:24:56;;;;;;;;;;;25.10;41.90;;;;;;1560172;76;1934;-73
2022/02/12 05:26:58;;;;;;;;;;;25.20;41.90;;;;;;1559592;75;746;-72
2022/02/12 05:29:00;;;;;;;;;;;25.20;41.90;;;;;;1553358;76;747;-72
2022/02/12 05:31:02;;;;;;;;;;;25.20;41.90;;;;;;1519127;78;1113;-72
2022/02/12 05:33:04;;;;;;;;;;;25.20;41.90;;;;;;1519219;77;714;-72
2022/02/12 05:35:06;;;;;;;;;;;25.10;42.10;;;;;;1519052;78;925;-70
2022/02/12 05:37:07;;;;;;;;;;;25.10;42.10;;;;;;1548759;75;734;-72
2022/02/12 05:39:10;;;;;;;;;;;25.30;42.10;;;;;;1560560;76;581;-71
2022/02/12 05:41:12;;;;;;;;;;;25.20;42.10;;;;;;1560229;76;1138;-72
2022/02/12 05:43:14;;;;;;;;;;;25.30;42.00;;;;;;1560416;76;794;-71
2022/02/12 05:45:16;;;;;;;;;;;25.20;42.00;;;;;;1531722;76;1938;-70
2022/02/12 05:47:18;;;;;;;;;;;25.20;42.00;;;;;;1554620;75;591;-70
2022/02/12 05:49:20;;;;;;;;;;;25.20;41.90;;;;;;1559416;75;714;-70
2022/02/12 05:51:22;;;;;;;;;;;25.20;41.90;;;;;;1560398;76;1130;-71
2022/02/12 05:53:24;;;;;;;;;;;25.30;42.00;;;;;;1560327;76;660;-71
2022/02/12 05:55:26;;;;;;;;;;;25.30;42.00;;;;;;1551039;76;787;-70
2022/02/12 05:57:28;;;;;;;;;;;25.20;42.10;;;;;;1548208;75;737;-72
2022/02/12 05:59:30;;;;;;;;;;;25.20;42.30;;;;;;1544776;76;710;-71
2022/02/12 06:01:31;;;;;;;;;;;25.30;42.30;;;;;;1547826;76;1130;-72
2022/02/12 06:03:33;;;;;;;;;;;25.20;42.20;;;;;;1543392;76;1935;-71
2022/02/12 06:05:36;;;;;;;;;;;25.20;42.10;;;;;;1539288;76;704;-72
2022/02/12 06:07:38;;;;;;;;;;;25.30;42.10;;;;;;1548878;75;654;-72
2022/02/12 06:09:39;;;;;;;;;;;25.30;42.10;;;;;;1539349;76;724;-71
2022/02/12 06:11:41;;;;;;;;;;;25.30;42.10;;;;;;1535356;76;1079;-71
2022/02/12 06:13:43;;;;;;;;;;;25.30;42.10;;;;;;1543538;76;770;-71
2022/02/12 06:15:45;;;;;;;;;;;25.30;42.10;;;;;;1543085;75;774;-72
2022/02/12 06:17:47;;;;;;;;;;;25.30;42.10;;;;;;1547903;76;850;-72
2022/02/12 06:19:49;;;;;;;;;;;25.20;42.20;;;;;;1538972;75;743;-70
2022/02/12 06:21:51;;;;;;;;;;;25.30;42.30;;;;;;1541563;76;1163;-72
2022/02/12 06:23:53;;;;;;;;;;;25.30;42.30;;;;;;1547771;76;1939;-72
2022/02/12 06:25:55;;;;;;;;;;;25.30;42.30;;;;;;1547589;76;693;-72
2022/02/12 06:27:58;;;;;;;;;;;25.30;42.30;;;;;;1540044;75;697;-71
2022/02/12 06:30:00;;;;;;;;;;;25.30;42.30;;;;;;1547842;76;779;-71
2022/02/12 06:32:01;;;;;;;;;;;25.20;42.40;;;;;;1539260;76;1136;-73
2022/02/12 06:34:03;;;;;;;;;;;25.30;42.50;;;;;;1539893;76;708;-73
2022/02/12 06:36:05;;;;;;;;;;;25.30;42.40;;;;;;1547885;75;730;-76
2022/02/12 06:38:07;;;;;;;;;;;25.30;42.50;;;;;;1547837;76;681;-72
2022/02/12 06:40:10;;;;;;;;;;;25.30;42.60;;;;;;1548484;76;724;-72
2022/02/12 06:42:12;;;;;;;;;;;25.30;42.70;;;;;;1547641;76;1133;-72
2022/02/12 06:44:13;;;;;;;;;;;25.20;42.70;;;;;;1547345;75;1931;-72
2022/02/12 06:46:15;;;;;;;;;;;25.30;42.50;;;;;;1534074;76;754;-75
2022/02/12 06:48:18;;;;;;;;;;;25.30;42.30;;;;;;1543421;76;667;-72
2022/02/12 06:50:20;;;;;;;;;;;25.30;42.10;;;;;;1545723;75;1139;-72
2022/02/12 06:52:22;;;;;;;;;;;25.40;42.10;;;;;;1545867;75;767;-72
2022/02/12 06:54:24;;;;;;;;;;;25.40;42.00;;;;;;1539746;76;729;-73
2022/02/12 06:56:26;;;;;;;;;;;25.40;42.00;;;;;;1541264;76;678;-72
2022/02/12 06:58:28;;;;;;;;;;;25.40;41.90;;;;;;1544428;75;730;-72
2022/02/12 07:00:30;;;;;;;;;;;25.40;42.00;;;;;;1548510;76;1131;-74
2022/02/12 07:02:32;;;;;;;;;;;25.30;41.90;;;;;;1545811;76;800;-72
2022/02/12 07:04:34;;;;;;;;;;;25.40;41.80;;;;;;1548016;76;1935;-71
2022/02/12 07:06:36;;;;;;;;;;;25.30;41.90;;;;;;1548473;75;727;-71
2022/02/12 07:08:38;;;;;;;;;;;25.30;41.80;;;;;;1548979;76;754;-71
2022/02/12 07:10:40;;;;;;;;;;;25.30;41.80;;;;;;1539827;76;1200;-72
2022/02/12 07:12:42;;;;;;;;;;;25.40;41.80;;;;;;1548483;76;711;-72
2022/02/12 07:14:44;;;;;;;;;;;25.40;41.80;;;;;;1539972;76;796;-71
2022/02/12 07:16:46;;;;;;;;;;;25.30;41.80;;;;;;1553684;75;708;-72
2022/02/12 07:18:48;;;;;;;;;;;25.40;41.80;;;;;;1551079;76;718;-72
2022/02/12 07:20:50;;;;;;;;;;;25.40;41.80;;;;;;1559416;75;1130;-73
2022/02/12 07:22:52;;;;;;;;;;;25.30;41.80;;;;;;1545723;76;727;-72
2022/02/12 07:24:54;;;;;;;;;;;25.30;41.70;;;;;;1551169;76;1946;-72
2022/02/12 07:26:56;;;;;;;;;;;25.30;41.80;;;;;;1553275;76;688;-72
2022/02/12 07:28:57;;;;;;;;;;;25.30;41.80;;;;;;1547884;75;724;-72
2022/02/12 07:30:59;;;;;;;;;;;25.30;41.70;;;;;;1518999;78;1119;-72
2022/02/12 07:33:01;;;;;;;;;;;25.30;41.80;;;;;;1519246;77;710;-72
2022/02/12 07:35:05;;;;;;;;;;;25.20;41.80;;;;;;1519257;78;726;-72
2022/02/12 07:37:07;;;;;;;;;;;25.20;41.80;;;;;;1519064;77;719;-71
2022/02/12 07:39:09;;;;;;;;;;;25.30;41.80;;;;;;1557655;75;705;-72
2022/02/12 07:41:16;;;;;;;;;;;25.20;41.80;;;;;;1560501;76;1118;-72
2022/02/12 07:43:14;;;;;;;;;;;25.20;41.70;;;;;;1559449;76;1108;-73
2022/02/12 07:45:17;;;;;;;;;;;25.20;41.80;;;;;;1552629;75;1938;-72
2022/02/12 07:47:19;;;;;;;;;;;25.20;41.80;;;;;;1560210;76;704;-72
2022/02/12 07:49:21;;;;;;;;;;;25.20;41.80;;;;;;1559358;75;727;-72
2022/02/12 07:51:23;;;;;;;;;;;25.20;41.80;;;;;;1560359;76;1137;-72
2022/02/12 07:53:25;;;;;;;;;;;25.20;41.80;;;;;;1549776;76;738;-71
2022/02/12 07:55:29;;;;;;;;;;;25.20;41.80;;;;;;1546479;76;721;-72
2022/02/12 07:57:30;;;;;;;;;;;25.20;41.80;;;;;;1535598;76;1146;-72
2022/02/12 07:59:32;;;;;;;;;;;25.20;41.80;;;;;;1541005;75;776;-72
2022/02/12 08:01:34;;;;;;;;;;;25.20;41.80;;;;;;1534167;76;1147;-73
2022/02/12 08:03:36;;;;;;;;;;;25.10;41.80;;;;;;1532829;76;746;-72
2022/02/12 08:05:38;;;;;;;;;;;25.10;41.80;;;;;;1533058;76;1928;-72
2022/02/12 08:07:39;;;;;;;;;;;25.10;41.80;;;;;;1536678;75;758;-71
2022/02/12 08:09:41;;;;;;;;;;;25.20;41.80;;;;;;1537917;76;720;-72
2022/02/12 08:12:01;;;;;;;;;;;25.20;41.80;;;;;;1550517;76;1155;-72
2022/02/12 08:13:47;;;;;;;;;;;25.10;41.80;;;;;;1513365;78;1092;-72
2022/02/12 08:15:49;;;;;;;;;;;25.20;41.80;;;;;;1510401;77;695;-73
2022/02/12 08:17:50;;;;;;;;;;;25.10;41.80;;;;;;1478510;80;712;-72
2022/02/12 08:19:52;;;;;;;;;;;25.20;41.80;;;;;;1519850;77;748;-73
2022/02/12 08:21:55;;;;;;;;;;;25.20;41.80;;;;;;1547539;74;3078;-70
2022/02/12 08:23:56;;;;;;;;;;;25.20;41.80;;;;;;1586701;74;720;-70
2022/02/12 08:25:58;;;;;;;;;;;25.20;41.70;;;;;;1592184;74;1926;-75
2022/02/12 08:28:00;;;;;;;;;;;25.20;41.80;;;;;;1597094;74;756;-71
2022/02/12 08:30:02;;;;;;;;;;;25.20;41.70;;;;;;1555674;76;791;-71
2022/02/12 08:32:05;;;;;;;;;;;25.20;41.70;;;;;;1553701;76;1205;-71
2022/02/12 08:34:07;;;;;;;;;;;25.20;41.70;;;;;;1541422;76;708;-71
2022/02/12 08:36:09;;;;;;;;;;;25.20;41.70;;;;;;1558240;76;747;-71
2022/02/12 08:38:11;;;;;;;;;;;25.20;41.60;;;;;;1559372;76;741;-71
2022/02/12 08:40:14;;;;;;;;;;;25.20;41.60;;;;;;1538180;76;791;-70
2022/02/12 08:42:18;;;;;;;;;;;25.20;41.70;;;;;;1533336;76;1203;-73
2022/02/12 08:44:20;;;;;;;;;;;25.10;41.60;;;;;;1538612;76;701;-70
2022/02/12 08:46:21;;;;;;;;;;;25.20;41.60;;;;;;1562112;75;1917;-70
2022/02/12 08:48:23;;;;;;;;;;;25.20;41.50;;;;;;1530849;76;808;-70
2022/02/12 08:50:25;;;;;;;;;;;25.20;41.60;;;;;;1541957;75;687;-71
2022/02/12 08:52:28;;;;;;;;;;;25.20;41.70;;;;;;1540525;76;1109;-71
2022/02/12 08:54:30;;;;;;;;;;;25.20;41.70;;;;;;1554572;75;746;-71
2022/02/12 08:56:33;;;;;;;;;;;25.20;41.70;;;;;;1552665;75;796;-71
2022/02/12 08:58:35;;;;;;;;;;;25.20;41.70;;;;;;1541096;75;790;-72
2022/02/12 09:00:37;;;;;;;;;;;25.30;41.70;;;;;;1530152;75;684;-71
2022/02/12 09:02:38;;;;;;;;;;;25.30;41.70;;;;;;1529173;76;832;-71
2022/02/12 09:04:41;;;;;;;;;;;25.30;41.60;;;;;;1549996;76;1941;-71
2022/02/12 09:06:42;;;;;;;;;;;25.30;41.70;;;;;;1556197;75;765;-71
2022/02/12 09:08:48;;;;;;;;;;;25.40;41.60;;;;;;1557595;75;728;-70
2022/02/12 09:10:48;;;;;;;;;;;25.40;41.60;;;;;;1561011;75;1679;-72
2022/02/12 09:12:50;;;;;;;;;;;25.40;41.60;;;;;;1560046;75;784;-74
2022/02/12 09:14:52;;;;;;;;;;;25.40;41.60;;;;;;1560671;75;726;-71
2022/02/12 09:16:53;;;;;;;;;;;25.50;41.50;;;;;;1562285;75;750;-71
2022/02/12 09:18:55;;;;;;;;;;;25.50;41.50;;;;;;1564752;75;780;-71
2022/02/12 09:20:57;;;;;;;;;;;25.50;41.50;;;;;;1549475;75;1198;-71
2022/02/12 09:22:59;;;;;;;;;;;25.50;41.50;;;;;;1549654;77;769;-70
2022/02/12 09:25:01;;;;;;;;;;;25.50;41.50;;;;;;1549421;77;1939;-72
2022/02/12 09:27:03;;;;;;;;;;;25.50;41.50;;;;;;1549675;75;636;-74
2022/02/12 09:29:05;;;;;;;;;;;25.50;41.40;;;;;;1549641;77;800;-73
2022/02/12 09:31:07;;;;;;;;;;;25.50;41.00;;;;;;1549453;77;1192;-74
2022/02/12 09:33:10;;;;;;;;;;;25.60;40.60;;;;;;1549801;77;724;-76
2022/02/12 09:35:12;;;;;;;;;;;25.60;40.40;;;;;;1549592;75;742;-73
2022/02/12 09:37:14;;;;;;;;;;;25.60;40.40;;;;;;1549556;76;718;-74
2022/02/12 09:39:16;;;;;;;;;;;25.60;40.50;;;;;;1549753;77;731;-78
2022/02/12 09:41:23;;;;;;;;;;;25.60;40.50;;;;;;1549662;77;1122;-75
2022/02/12 09:43:22;;;;;;;;;;;25.60;40.50;;;;;;1547970;75;1028;-76
2022/02/12 09:45:24;;;;;;;;;;;25.60;40.50;;;;;;1567547;75;1950;-72
2022/02/12 09:47:28;;;;;;;;;;;25.60;40.50;;;;;;1576190;75;732;-75
2022/02/12 09:49:30;;;;;;;;;;;25.60;40.50;;;;;;1574261;75;1601;-72
2022/02/12 09:51:32;;;;;;;;;;;25.70;40.50;;;;;;1576211;75;1108;-72
2022/02/12 09:53:34;;;;;;;;;;;25.70;40.40;;;;;;1576045;75;731;-71
2022/02/12 09:55:36;;;;;;;;;;;25.60;40.40;;;;;;1571546;75;786;-71
2022/02/12 09:57:37;;;;;;;;;;;25.70;40.50;;;;;;1549514;75;728;-71
2022/02/12 09:59:39;;;;;;;;;;;25.80;40.30;;;;;;1554304;75;708;-76
2022/02/12 10:01:41;;;;;;;;;;;25.80;40.30;;;;;;1553918;75;1145;-72
2022/02/12 10:03:43;;;;;;;;;;;25.70;40.30;;;;;;1550230;75;748;-74
2022/02/12 10:05:53;;;;;;;;;;;25.70;40.20;;;;;;1552012;75;1935;-72
2022/02/12 10:08:03;;;;;;;;;;;25.70;40.20;;;;;;1555347;75;712;-73
2022/02/12 10:10:15;;;;;;;;;;;25.70;40.20;;;;;;1555538;75;739;-72
2022/02/12 10:12:23;;;;;;;;;;;25.70;40.20;;;;;;1552095;75;1160;-72
2022/02/12 10:14:26;;;;;;;;;;;25.80;40.20;;;;;;1552025;75;754;-72
2022/02/12 10:16:29;;;;;;;;;;;25.70;40.20;;;;;;1551728;75;657;-72
2022/02/12 10:18:32;;;;;;;;;;;25.70;40.20;;;;;;1533224;77;755;-71
2022/02/12 10:20:35;;;;;;;;;;;25.70;40.10;;;;;;1562649;75;776;-73
2022/02/12 10:22:38;;;;;;;;;;;25.70;40.20;;;;;;1576183;75;1204;-72
2022/02/12 10:24:53;;;;;;;;;;;25.60;40.20;;;;;;1567750;75;1207;-70
2022/02/12 10:27:00;;;;;;;;;;;25.70;40.20;;;;;;1576153;75;1945;-71
2022/02/12 10:29:02;;;;;;;;;;;25.70;40.10;;;;;;1571869;75;1442;-71
2022/02/12 10:31:04;;;;;;;;;;;25.70;40.10;;;;;;1515661;78;1260;-72
2022/02/12 10:33:06;;;;;;;;;;;25.60;40.10;;;;;;1549623;77;729;-72
2022/02/12 10:35:09;;;;;;;;;;;25.60;40.20;;;;;;1549669;77;994;-73
2022/02/12 10:37:15;;;;;;;;;;;25.60;40.00;;;;;;1549585;77;696;-73
2022/02/12 10:39:16;;;;;;;;;;;25.70;40.00;;;;;;1570513;75;739;-76
2022/02/12 10:41:19;;;;;;;;;;;25.70;39.50;;;;;;1576349;75;1145;-72
2022/02/12 10:43:23;;;;;;;;;;;25.60;38.60;;;;;;1576149;75;703;-72
2022/02/12 10:45:26;;;;;;;;;;;25.30;32.30;;;;;;1555861;75;1911;-72
2022/02/12 10:47:28;;;;;;;;;;;25.20;35.80;;;;;;1549750;77;707;-71
2022/02/12 10:49:30;;;;;;;;;;;25.00;33.40;;;;;;1549550;75;571;-74
2022/02/12 10:51:32;;;;;;;;;;;24.80;31.60;;;;;;1549743;77;1138;-71
2022/02/12 10:53:34;;;;;;;;;;;24.60;31.40;;;;;;1515541;78;1264;-71
2022/02/12 10:55:37;;;;;;;;;;;24.40;29.70;;;;;;1542018;77;763;-72
2022/02/12 10:57:39;;;;;;;;;;;24.20;29.40;;;;;;1541851;76;732;-73
2022/02/12 10:59:44;;;;;;;;;;;24.20;31.20;;;;;;1563918;75;719;-72
2022/02/12 11:01:46;;;;;;;;;;;24.10;31.30;;;;;;1546654;76;1143;-72
2022/02/12 11:03:48;;;;;;;;;;;24.00;31.50;;;;;;1555282;76;853;-72
2022/02/12 11:05:52;;;;;;;;;;;24.00;31.80;;;;;;1541830;77;1923;-73
2022/02/12 11:07:54;;;;;;;;;;;24.00;31.20;;;;;;1542032;77;716;-73
2022/02/12 11:09:56;;;;;;;;;;;23.80;29.40;;;;;;1542084;76;644;-72
2022/02/12 11:11:59;;;;;;;;;;;23.70;29.70;;;;;;1548367;75;1126;-73
2022/02/12 11:14:01;;;;;;;;;;;23.60;28.30;;;;;;1550023;75;1007;-73
2022/02/12 11:16:03;;;;;;;;;;;23.40;26.00;;;;;;1549896;76;743;-72
2022/02/12 11:18:10;;;;;;;;;;;23.30;27.80;;;;;;1541958;77;785;-73
2022/02/12 11:20:11;;;;;;;;;;;23.20;27.80;;;;;;1547180;76;1504;-72
2022/02/12 11:22:14;;;;;;;;;;;23.10;27.10;;;;;;1547710;75;1208;-72
2022/02/12 11:24:16;;;;;;;;;;;23.00;26.00;;;;;;1541949;76;756;-73
2022/02/12 11:26:20;;;;;;;;;;;22.80;25.10;;;;;;1541854;77;1902;-74
2022/02/12 11:28:41;;;;;;;;;;;22.40;24.70;;;;;;1541889;77;730;-73
2022/02/12 11:30:42;;;;;;;;;;;22.10;25.40;;;;;;1539845;77;1426;-66
2022/02/12 11:32:44;;;;;;;;;;;22.20;28.40;;;;;;1541983;76;729;-66
2022/02/12 11:34:59;;;;;;;;;;;22.30;29.70;;;;;;1543347;75;747;-69
2022/02/12 11:37:14;;;;;;;;;;;22.40;30.60;;;;;;1568701;76;734;-67
2022/02/12 11:39:18;;;;;;;;;;;22.50;31.00;;;;;;1543126;75;622;-68
2022/02/12 11:41:22;;;;;;;;;;;22.60;31.20;;;;;;1541875;77;1199;-68
2022/02/12 11:43:25;;;;;;;;;;;22.70;31.70;;;;;;1541639;77;683;-70
2022/02/12 11:45:31;;;;;;;;;;;22.80;32.20;;;;;;1561855;76;1881;-69
2022/02/12 11:47:36;;;;;;;;;;;22.90;32.40;;;;;;1568660;76;737;-69
2022/02/12 11:49:43;;;;;;;;;;;23.10;32.70;;;;;;1542263;75;1515;-69
2022/02/12 11:51:46;;;;;;;;;;;23.10;32.80;;;;;;1541989;77;1132;-68
2022/02/12 11:53:54;;;;;;;;;;;23.20;32.80;;;;;;1541870;77;711;-69
2022/02/12 11:55:52;;;;;;;;;;;23.30;32.80;;;;;;1548112;76;1460;-70
2022/02/12 11:57:54;;;;;;;;;;;23.40;32.90;;;;;;1568606;76;808;-69
2022/02/12 12:00:06;;;;;;;;;;;23.50;33.10;;;;;;1546284;76;929;-69
2022/02/12 12:02:08;;;;;;;;;;;23.50;33.20;;;;;;1542084;77;1150;-69
2022/02/12 12:04:11;;;;;;;;;;;23.50;33.40;;;;;;1542839;76;723;-68
2022/02/12 12:06:20;;;;;;;;;;;23.50;33.50;;;;;;1541813;76;1936;-69
2022/02/12 12:08:22;;;;;;;;;;;23.60;33.70;;;;;;1542046;77;759;-70
2022/02/12 12:10:23;;;;;;;;;;;23.50;33.80;;;;;;1542007;77;792;-71
2022/02/12 12:12:25;;;;;;;;;;;23.50;33.90;;;;;;1541945;76;1106;-70
2022/02/12 12:14:29;;;;;;;;;;;23.60;33.90;;;;;;1541944;77;820;-71